Time;durP1;ratioP1;P1;durP2;ratioP2;P2;SDS_P1;SDS_P2;PMS_P1;PMS_P2;Temp;Humidity;BMP_temperature;BMP_pressure;BME280_temperature;BME280_humidity;BME280_pressure;Samples;Min_cycle;Max_cycle;Signal;HPM_P1;HPM_P2
2021/07/05 00:02:26;;;;;;;1.55;1.42;;;;;;;15.81;100.00;100026.00;5013624;28;20527;-65
2021/07/05 00:05:14;;;;;;;3.15;1.38;;;;;;;15.76;100.00;100025.72;5015938;28;20132;-66
2021/07/05 00:07:58;;;;;;;3.33;1.50;;;;;;;15.77;100.00;100017.44;5013608;28;20522;-66
2021/07/05 00:10:42;;;;;;;1.50;1.30;;;;;;;15.75;100.00;100024.06;5013715;28;20049;-66
2021/07/05 00:13:25;;;;;;;2.83;1.35;;;;;;;15.73;100.00;100020.69;5014672;28;20111;-66
2021/07/05 00:16:09;;;;;;;1.30;1.20;;;;;;;15.71;100.00;100020.88;5014306;28;20048;-66
2021/07/05 00:18:54;;;;;;;1.38;1.27;;;;;;;15.71;100.00;100012.81;5013599;28;20053;-65
2021/07/05 00:21:38;;;;;;;4.93;1.67;;;;;;;15.70;100.00;100007.63;5014070;28;20052;-64
2021/07/05 00:24:23;;;;;;;3.22;1.27;;;;;;;15.71;100.00;100012.81;5014294;28;20107;-66
2021/07/05 00:27:07;;;;;;;3.22;1.35;;;;;;;15.74;100.00;100022.38;5013455;28;20076;-66
2021/07/05 00:29:51;;;;;;;1.75;1.30;;;;;;;15.75;100.00;100018.69;5013150;28;20076;-65
2021/07/05 00:32:35;;;;;;;3.22;1.50;;;;;;;15.75;100.00;100014.13;5013358;28;20140;-66
2021/07/05 00:35:21;;;;;;;1.55;1.27;;;;;;;15.77;100.00;100011.25;5012935;28;20091;-66
2021/07/05 00:38:05;;;;;;;1.35;1.20;;;;;;;15.77;100.00;100012.06;4999339;28;20407;-66
2021/07/05 00:40:49;;;;;;;4.03;1.58;;;;;;;15.80;100.00;100009.03;4999572;28;20103;-66
2021/07/05 00:43:33;;;;;;;;;;;;;;;15.81;100.00;100013.41;5014439;28;20121;-65
2021/07/05 00:46:17;;;;;;;1.95;1.75;;;;;;;15.83;100.00;100008.66;5026789;28;20020;-66
2021/07/05 00:49:01;;;;;;;2.67;1.20;;;;;;;15.84;100.00;100017.53;5013095;28;20052;-66
2021/07/05 00:51:45;;;;;;;3.38;1.40;;;;;;;15.83;100.00;100014.03;5013048;28;20064;-66
2021/07/05 00:54:29;;;;;;;2.67;1.75;;;;;;;15.80;100.00;100005.50;5013659;28;20044;-66
2021/07/05 00:57:24;;;;;;;5.05;1.52;;;;;;;15.74;100.00;100001.69;5013004;28;20134;-66
2021/07/05 01:00:12;;;;;;;2.58;2.05;;;;;;;15.75;100.00;100002.56;5012985;28;20081;-65
2021/07/05 01:02:56;;;;;;;2.75;1.67;;;;;;;15.74;100.00;100007.06;4998825;28;20100;-66
2021/07/05 01:05:40;;;;;;;;;;;;;;;15.73;100.00;100001.88;5012882;28;20442;-66
2021/07/05 01:08:24;;;;;;;1.95;1.70;;;;;;;15.73;100.00;100000.03;5013853;28;20011;-66
2021/07/05 01:11:08;;;;;;;9.07;2.20;;;;;;;15.74;100.00;99990.94;5013451;28;20088;-65
2021/07/05 01:13:52;;;;;;;5.03;2.00;;;;;;;15.79;100.00;99987.72;5012739;28;20459;-66
2021/07/05 01:16:36;;;;;;;3.67;1.88;;;;;;;15.78;100.00;99994.13;4999100;28;20137;-65
2021/07/05 01:19:20;;;;;;;3.30;1.98;;;;;;;15.80;100.00;99990.22;5012486;28;20095;-65
2021/07/05 01:22:04;;;;;;;5.47;1.98;;;;;;;15.85;100.00;99992.38;4998817;28;20514;-66
2021/07/05 01:24:48;;;;;;;3.47;2.20;;;;;;;15.96;100.00;99987.34;5013213;28;20057;-66
2021/07/05 01:27:32;;;;;;;2.92;1.70;;;;;;;15.94;100.00;99986.69;5012312;28;20057;-66
2021/07/05 01:30:18;;;;;;;3.35;1.90;;;;;;;15.94;100.00;99975.94;5012594;28;20056;-66
2021/07/05 01:33:06;;;;;;;6.85;2.00;;;;;;;15.96;100.00;99979.28;5002311;28;20116;-66
2021/07/05 01:35:50;;;;;;;3.88;1.50;;;;;;;15.91;100.00;99975.47;5016278;28;20088;-65
2021/07/05 01:38:35;;;;;;;3.70;1.38;;;;;;;15.82;100.00;99981.97;5016352;28;20143;-66
2021/07/05 01:41:19;;;;;;;3.25;1.73;;;;;;;15.76;100.00;99971.97;5002646;28;20084;-66
2021/07/05 01:44:03;;;;;;;3.83;2.10;;;;;;;15.69;100.00;99982.63;5016340;28;20099;-65
2021/07/05 01:46:47;;;;;;;2.10;1.63;;;;;;;15.63;100.00;99977.97;5017336;28;20053;-66
2021/07/05 01:49:32;;;;;;;3.47;1.80;;;;;;;15.58;100.00;99974.97;5017325;28;20120;-66
2021/07/05 01:52:16;;;;;;;3.85;2.10;;;;;;;15.54;100.00;99961.28;5017287;28;20045;-65
2021/07/05 01:55:00;;;;;;;7.22;2.15;;;;;;;15.54;100.00;99955.91;5015910;28;20086;-66
2021/07/05 01:57:44;;;;;;;4.28;1.67;;;;;;;15.51;100.00;99956.28;5002073;28;20580;-66
2021/07/05 02:00:29;;;;;;;4.70;2.13;;;;;;;15.52;100.00;99963.31;5002307;28;20056;-66
2021/07/05 02:03:17;;;;;;;5.28;2.58;;;;;;;15.64;100.00;99971.56;5015984;28;20048;-64
2021/07/05 02:06:01;;;;;;;4.85;1.98;;;;;;;15.65;100.00;99981.28;5015576;28;20048;-66
2021/07/05 02:08:45;;;;;;;3.40;1.80;;;;;;;15.65;100.00;99980.47;5016036;28;20129;-66
2021/07/05 02:11:29;;;;;;;2.13;1.92;;;;;;;15.68;100.00;99980.91;5016696;28;20060;-66
2021/07/05 02:14:12;;;;;;;4.75;2.20;;;;;;;15.82;100.00;99973.91;5015766;28;20048;-66
2021/07/05 02:16:56;;;;;;;7.60;1.92;;;;;;;15.97;100.00;99967.50;5016884;28;20052;-66
2021/07/05 02:19:40;;;;;;;3.25;2.22;;;;;;;16.09;100.00;99974.06;5002255;28;20095;-66
2021/07/05 02:22:24;;;;;;;3.15;2.40;;;;;;;16.24;100.00;99982.97;5015717;28;20049;-66
2021/07/05 02:25:09;;;;;;;;;;;;;;;16.30;100.00;99979.56;5016891;28;20100;-66
2021/07/05 02:27:55;;;;;;;2.05;1.90;;;;;;;16.37;100.00;99969.72;5029693;28;19920;-66
2021/07/05 02:30:40;;;;;;;3.25;2.08;;;;;;;16.47;100.00;99978.34;5016338;28;20541;-66
2021/07/05 02:33:27;;;;;;;4.10;2.35;;;;;;;16.53;100.00;99972.22;5015577;28;20411;-66
2021/07/05 02:36:11;;;;;;;5.78;1.85;;;;;;;16.52;100.00;99975.09;5016179;28;20072;-66
2021/07/05 02:38:55;;;;;;;4.00;2.33;;;;;;;16.51;100.00;99968.03;5015194;28;20052;-66
2021/07/05 02:41:39;;;;;;;4.13;2.03;;;;;;;16.60;100.00;99973.09;5015700;28;20141;-64
2021/07/05 02:44:22;;;;;;;3.65;2.00;;;;;;;16.68;100.00;99970.31;5000391;28;20159;-66
2021/07/05 02:47:06;;;;;;;3.65;2.03;;;;;;;16.69;100.00;99966.59;5015178;28;20053;-65
2021/07/05 02:49:50;;;;;;;5.15;2.40;;;;;;;16.70;100.00;99960.19;5015983;28;20434;-66
2021/07/05 02:52:34;;;;;;;2.60;2.10;;;;;;;16.75;100.00;99952.38;5015929;28;20061;-65
2021/07/05 02:55:19;;;;;;;2.80;2.10;;;;;;;16.81;100.00;99965.09;5016262;28;20102;-66
2021/07/05 02:58:04;;;;;;;3.90;2.10;;;;;;;16.84;100.00;99959.31;5014767;28;20189;-65
2021/07/05 03:00:51;;;;;;;2.75;1.98;;;;;;;16.83;100.00;99946.88;5015810;28;20132;-65
2021/07/05 03:03:36;;;;;;;5.47;2.28;;;;;;;16.82;100.00;99949.75;5015684;28;20053;-65
2021/07/05 03:06:20;;;;;;;3.50;2.25;;;;;;;16.85;100.00;99947.50;5000897;28;20112;-65
2021/07/05 03:09:04;;;;;;;6.50;2.10;;;;;;;16.92;100.00;99948.41;5015956;28;20052;-66
2021/07/05 03:11:48;;;;;;;3.58;2.00;;;;;;;16.93;100.00;99952.78;5015854;28;20133;-66
2021/07/05 03:14:32;;;;;;;4.72;2.22;;;;;;;16.93;100.00;99950.09;5014494;28;20153;-66
2021/07/05 03:17:16;;;;;;;6.30;2.25;;;;;;;16.95;100.00;99945.34;5015746;28;20049;-65
2021/07/05 03:20:00;;;;;;;1.95;1.75;;;;;;;16.89;100.00;99946.09;5015722;28;20077;-66
2021/07/05 03:22:46;;;;;;;6.63;2.20;;;;;;;16.86;100.00;99938.41;5014555;28;20049;-65
2021/07/05 03:25:32;;;;;;;13.38;2.25;;;;;;;16.84;100.00;99935.09;5014467;28;20056;-66
2021/07/05 03:28:17;;;;;;;4.50;2.50;;;;;;;16.89;100.00;99931.81;5015505;28;20053;-66
2021/07/05 03:31:02;;;;;;;4.43;2.28;;;;;;;16.92;100.00;99937.66;5014434;28;20049;-65
2021/07/05 03:33:46;;;;;;;7.22;2.13;;;;;;;16.93;100.00;99935.78;5014437;28;20044;-66
2021/07/05 03:36:30;;;;;;;7.53;2.28;;;;;;;16.96;100.00;99943.47;5015038;28;20099;-65
2021/07/05 03:39:14;;;;;;;6.97;2.42;;;;;;;16.97;100.00;99955.94;5014576;28;20052;-67
2021/07/05 03:41:57;;;;;;;3.78;2.15;;;;;;;16.91;100.00;99954.81;5015310;28;20218;-66
2021/07/05 03:44:41;;;;;;;4.07;2.25;;;;;;;16.93;100.00;99958.16;4999928;28;20136;-66
2021/07/05 03:47:25;;;;;;;7.85;2.58;;;;;;;16.98;100.00;99966.47;5015168;28;20084;-67
2021/07/05 03:50:11;;;;;;;8.68;2.58;;;;;;;17.01;100.00;99960.72;5000292;28;20103;-66
2021/07/05 03:52:55;;;;;;;5.47;2.40;;;;;;;17.00;100.00;99969.81;5014064;28;20099;-66
2021/07/05 03:55:39;;;;;;;5.78;2.80;;;;;;;17.03;100.00;99969.44;5013473;28;20084;-66
2021/07/05 03:58:23;;;;;;;8.50;3.17;;;;;;;17.03;100.00;99966.75;5014724;28;20514;-65
2021/07/05 04:01:07;;;;;;;6.82;2.70;;;;;;;17.07;100.00;99978.81;5013899;28;20045;-66
2021/07/05 04:03:51;;;;;;;4.38;2.53;;;;;;;17.04;100.00;99986.44;5013828;28;20052;-66
2021/07/05 04:06:35;;;;;;;6.88;2.78;;;;;;;17.03;100.00;99985.59;5014574;28;20069;-66
2021/07/05 04:09:21;;;;;;;5.50;3.15;;;;;;;17.04;100.00;99981.88;4999955;28;20084;-66
2021/07/05 04:12:07;;;;;;;8.05;3.03;;;;;;;17.06;100.00;99979.84;5014005;28;20454;-65
2021/07/05 04:14:51;;;;;;;8.30;2.60;;;;;;;17.08;100.00;99977.78;5013504;28;20147;-65
2021/07/05 04:17:35;;;;;;;9.32;2.80;;;;;;;17.10;100.00;99974.91;4999798;28;20573;-65
2021/07/05 04:20:20;;;;;;;7.18;2.70;;;;;;;17.10;100.00;99978.41;4999768;28;20524;-66
2021/07/05 04:23:05;;;;;;;3.92;2.50;;;;;;;17.10;100.00;99970.31;5013533;28;20100;-65
2021/07/05 04:25:49;;;;;;;6.25;2.38;;;;;;;17.14;100.00;99970.78;5013144;28;20076;-65
2021/07/05 04:28:33;;;;;;;6.03;2.50;;;;;;;17.17;100.00;99976.63;5013393;28;20135;-66
2021/07/05 04:31:17;;;;;;;3.80;2.50;;;;;;;17.19;100.00;99985.34;5014168;28;20544;-66
2021/07/05 04:34:01;;;;;;;3.17;2.53;;;;;;;17.19;100.00;99987.22;4999307;28;20088;-66
2021/07/05 04:36:45;;;;;;;5.85;2.53;;;;;;;17.19;100.00;99979.94;5013335;28;20084;-65
2021/07/05 04:39:29;;;;;;;;;;;;;;;17.23;100.00;99986.63;5013372;28;20071;-66
2021/07/05 04:42:12;;;;;;;6.22;2.63;;;;;;;17.27;100.00;99977.13;5012959;28;19968;-65
2021/07/05 04:44:56;;;;;;;7.18;2.42;;;;;;;17.28;100.00;99983.38;5013869;28;20121;-66
2021/07/05 04:47:41;;;;;;;9.32;2.60;;;;;;;17.30;100.00;99982.13;5012853;28;20072;-65
2021/07/05 04:50:26;;;;;;;4.30;2.47;;;;;;;17.34;100.00;99980.72;5012839;28;20053;-66
2021/07/05 04:53:10;;;;;;;4.90;2.70;;;;;;;17.32;100.00;99990.84;5012986;28;20423;-66
2021/07/05 04:55:54;;;;;;;6.45;2.83;;;;;;;17.34;100.00;99996.88;5012928;28;20037;-66
2021/07/05 04:58:38;;;;;;;6.45;2.47;;;;;;;17.33;100.00;100014.09;5014130;28;20052;-66
2021/07/05 05:01:22;;;;;;;5.57;2.50;;;;;;;17.32;100.00;100015.09;5012912;28;20099;-66
2021/07/05 05:04:05;;;;;;;6.65;3.13;;;;;;;17.32;100.00;100006.19;5012814;28;20076;-66
2021/07/05 05:06:49;;;;;;;4.47;3.08;;;;;;;17.33;100.00;100010.53;5012485;28;20121;-66
2021/07/05 05:09:33;;;;;;;4.82;2.35;;;;;;;17.31;100.00;100013.41;5012522;28;20065;-66
2021/07/05 05:12:17;;;;;;;4.07;2.55;;;;;;;17.27;100.00;100009.47;5012797;28;20072;-66
2021/07/05 05:15:02;;;;;;;9.18;2.58;;;;;;;17.32;100.00;100012.38;5013722;28;20395;-66
2021/07/05 05:17:47;;;;;;;3.97;2.40;;;;;;;17.36;100.00;100008.34;5012694;28;20052;-66
2021/07/05 05:20:32;;;;;;;2.80;2.47;;;;;;;17.35;100.00;100006.66;5013449;28;20053;-66
2021/07/05 05:23:16;;;;;;;9.35;2.83;;;;;;;17.40;100.00;100015.00;4999015;28;20053;-67
2021/07/05 05:26:01;;;;;;;3.60;2.40;;;;;;;17.42;100.00;100012.94;5012840;28;20069;-66
2021/07/05 05:28:45;;;;;;;9.73;2.78;;;;;;;17.43;100.00;100014.63;5012355;28;20061;-66
2021/07/05 05:31:31;;;;;;;5.80;2.10;;;;;;;17.47;100.00;100015.91;5013319;28;20064;-66
2021/07/05 05:34:14;;;;;;;3.40;2.08;;;;;;;17.48;100.00;100008.63;5013504;28;20052;-66
2021/07/05 05:36:58;;;;;;;3.15;2.22;;;;;;;17.50;100.00;100020.06;5012361;28;20052;-65
2021/07/05 05:39:42;;;;;;;4.38;2.10;;;;;;;17.52;100.00;100018.81;4998712;28;20053;-67
2021/07/05 05:42:26;;;;;;;4.50;2.25;;;;;;;17.47;100.00;100010.50;5012400;28;20108;-67
2021/07/05 05:45:10;;;;;;;9.93;2.72;;;;;;;17.50;100.00;100011.97;4998470;28;20053;-66
2021/07/05 05:47:55;;;;;;;4.32;2.33;;;;;;;17.52;100.00;100024.22;4998597;28;20068;-68
2021/07/05 05:50:38;;;;;;;9.23;2.50;;;;;;;17.59;100.00;100019.72;5012377;28;20056;-67
2021/07/05 05:53:23;;;;;;;5.38;2.55;;;;;;;17.53;100.00;100012.44;4998282;28;20052;-64
2021/07/05 05:56:07;;;;;;;6.53;2.65;;;;;;;17.52;100.00;100009.91;4998590;28;20153;-67
2021/07/05 05:58:51;;;;;;;5.22;2.25;;;;;;;17.57;100.00;100016.41;5012210;28;20060;-67
2021/07/05 06:01:38;;;;;;;6.68;2.45;;;;;;;17.61;100.00;100017.66;5012319;28;20056;-67
2021/07/05 06:04:22;;;;;;;4.88;2.17;;;;;;;17.62;100.00;100015.81;5011884;28;20414;-66
2021/07/05 06:07:05;;;;;;;8.55;2.20;;;;;;;17.62;100.00;100016.63;5044738;23;20402;-69
2021/07/05 06:09:49;;;;;;;9.00;2.28;;;;;;;17.69;100.00;100011.31;5032991;28;20048;-69
2021/07/05 06:12:33;;;;;;;6.82;2.30;;;;;;;17.75;100.00;100014.06;5031902;28;20100;-70
2021/07/05 06:15:19;;;;;;;5.50;2.30;;;;;;;17.80;100.00;100016.97;5031579;28;20048;-69
2021/07/05 06:18:03;;;;;;;4.38;2.50;;;;;;;17.84;100.00;100012.88;5033727;28;20045;-69
2021/07/05 06:20:47;;;;;;;;;;;;;;;17.86;100.00;100016.22;5035705;28;20056;-70
2021/07/05 06:23:31;;;;;;;4.70;2.30;;;;;;;17.85;100.00;100014.53;5021727;28;19943;-69
2021/07/05 06:26:15;;;;;;;7.22;2.25;;;;;;;17.90;100.00;100013.97;5035205;28;20564;-70
2021/07/05 06:28:59;;;;;;;6.80;2.22;;;;;;;17.94;100.00;100013.38;5035114;28;20053;-70
2021/07/05 06:31:43;;;;;;;4.75;2.15;;;;;;;17.97;100.00;100002.19;5036384;28;20099;-70
2021/07/05 06:34:27;;;;;;;8.65;2.15;;;;;;;18.06;100.00;100009.09;5035303;28;20126;-70
2021/07/05 06:37:11;;;;;;;3.65;2.25;;;;;;;18.06;100.00;100011.78;5020961;28;20476;-70
2021/07/05 06:39:55;;;;;;;4.00;2.22;;;;;;;18.17;100.00;100008.53;5021219;28;20048;-69
2021/07/05 06:42:38;;;;;;;4.15;2.55;;;;;;;18.18;100.00;100010.19;5034960;28;20123;-70
2021/07/05 06:45:22;;;;;;;7.53;2.35;;;;;;;18.34;100.00;100003.66;5035717;28;20461;-70
2021/07/05 06:48:06;;;;;;;4.97;2.22;;;;;;;18.36;100.00;100007.00;5035070;28;20463;-70
2021/07/05 06:50:50;;;;;;;5.72;2.15;;;;;;;18.44;100.00;99996.84;5035764;28;20121;-70
2021/07/05 06:53:34;;;;;;;12.18;2.13;;;;;;;18.54;100.00;100005.41;5034880;28;20072;-70
2021/07/05 06:56:18;;;;;;;4.00;2.20;;;;;;;18.66;100.00;99999.25;5034520;28;20052;-69
2021/07/05 06:59:02;;;;;;;;;;;;;;;18.63;100.00;100001.50;5035276;28;20068;-70
2021/07/05 07:01:46;;;;;;;5.03;1.87;;;;;;;18.68;100.00;99999.88;5020848;28;19936;-70
2021/07/05 07:04:31;;;;;;;6.03;1.98;;;;;;;18.82;100.00;99992.66;5034711;28;20469;-70
2021/07/05 07:07:15;;;;;;;2.33;1.92;;;;;;;19.00;100.00;99984.81;5020568;28;20425;-71
2021/07/05 07:09:59;;;;;;;5.25;2.30;;;;;;;19.16;100.00;99992.50;5020688;28;20047;-70
2021/07/05 07:12:50;;;;;;;6.20;2.22;;;;;;;19.34;100.00;99977.41;5034525;28;20414;-70
2021/07/05 07:15:37;;;;;;;5.65;2.17;;;;;;;19.48;100.00;99983.66;5034537;28;20095;-70
2021/07/05 07:21:05;;;;;;;4.10;2.00;;;;;;;19.52;100.00;99977.63;5034379;28;20460;-70
2021/07/05 07:23:49;;;;;;;4.38;2.17;;;;;;;19.64;100.00;99981.34;5034311;28;20100;-70
2021/07/05 07:26:33;;;;;;;9.68;2.03;;;;;;;19.44;100.00;99985.94;5034263;28;20060;-69
2021/07/05 07:29:17;;;;;;;5.13;1.83;;;;;;;19.42;100.00;99987.16;5034760;28;20096;-70
2021/07/05 07:32:01;;;;;;;3.75;2.35;;;;;;;19.56;100.00;99978.00;5020267;28;20134;-69
2021/07/05 07:34:46;;;;;;;3.17;1.88;;;;;;;19.53;100.00;99981.13;5034223;28;20060;-70
2021/07/05 07:37:31;;;;;;;2.85;1.83;;;;;;;19.63;100.00;99990.50;5033857;28;20111;-70
2021/07/05 07:40:18;;;;;;;5.45;1.88;;;;;;;19.71;100.00;99984.06;5034347;28;20103;-70
2021/07/05 07:43:02;;;;;;;5.55;1.80;;;;;;;19.58;100.00;99984.88;5034328;28;20134;-70
2021/07/05 07:45:46;;;;;;;6.85;2.53;;;;;;;19.60;100.00;99965.75;5019648;28;20051;-70
2021/07/05 07:48:30;;;;;;;2.13;1.80;;;;;;;19.40;100.00;99978.44;5020034;28;20601;-71
2021/07/05 07:51:13;;;;;;;6.22;1.83;;;;;;;19.47;100.00;99972.00;5034870;28;20100;-70
2021/07/05 07:53:58;;;;;;;4.65;1.83;;;;;;;19.46;100.00;99988.41;5034886;28;20041;-71
2021/07/05 07:56:42;;;;;;;3.20;1.60;;;;;;;19.19;100.00;99984.03;5034521;28;20564;-71
2021/07/05 07:59:26;;;;;;;;;;;;;;;19.24;100.00;99978.84;5035224;28;20048;-70
2021/07/05 08:02:13;;;;;;;5.32;2.00;;;;;;;19.33;100.00;99974.91;5033688;28;19919;-71
2021/07/05 08:04:57;;;;;;;2.47;1.65;;;;;;;19.30;100.00;99986.94;5034780;28;20498;-71
2021/07/05 08:07:42;;;;;;;3.10;1.52;;;;;;;19.28;100.00;99982.81;5033709;28;20102;-71
2021/07/05 08:10:26;;;;;;;3.95;1.77;;;;;;;19.29;100.00;99984.47;5033336;28;20128;-71
2021/07/05 08:13:10;;;;;;;2.55;1.50;;;;;;;19.41;100.00;99985.50;5033781;28;20053;-71
2021/07/05 08:15:54;;;;;;;3.28;1.77;;;;;;;19.40;100.00;99978.44;5034418;28;20053;-71
2021/07/05 08:18:39;;;;;;;3.38;1.70;;;;;;;19.40;100.00;99971.16;5033247;28;20134;-69
2021/07/05 08:21:23;;;;;;;5.85;1.70;;;;;;;19.23;100.00;99979.88;5033378;28;20541;-71
2021/07/05 08:24:08;;;;;;;3.78;1.73;;;;;;;19.29;98.92;99973.66;5032994;28;20102;-70
2021/07/05 08:26:52;;;;;;;4.55;1.80;;;;;;;19.34;99.34;99966.59;5033002;28;20048;-70
2021/07/05 08:29:36;;;;;;;4.40;1.30;;;;;;;19.47;98.31;99958.47;5033219;28;20072;-71
2021/07/05 08:32:20;;;;;;;1.90;1.27;;;;;;;19.41;95.87;99972.81;5034252;28;20049;-70
2021/07/05 08:35:05;;;;;;;9.07;1.80;;;;;;;19.25;97.46;99966.97;5018998;28;20402;-70
2021/07/05 08:37:50;;;;;;;3.25;1.60;;;;;;;19.33;97.60;99967.63;5032768;28;20525;-71
2021/07/05 08:40:34;;;;;;;2.88;1.60;;;;;;;19.35;96.31;99973.66;5033469;28;20048;-71
2021/07/05 08:43:24;;;;;;;2.15;1.80;;;;;;;19.53;97.07;99965.75;5033542;28;20047;-71
2021/07/05 08:46:09;;;;;;;1.70;1.33;;;;;;;19.84;95.07;99967.78;5019697;28;20043;-71
2021/07/05 08:48:53;;;;;;;2.97;1.50;;;;;;;19.89;93.43;99965.31;5033105;28;20130;-71
2021/07/05 08:51:37;;;;;;;6.95;1.65;;;;;;;19.89;91.09;99970.72;5032912;28;20055;-71
2021/07/05 08:54:21;;;;;;;2.95;1.70;;;;;;;19.96;91.82;99966.09;5018787;28;20102;-71
2021/07/05 08:57:05;;;;;;;2.35;1.50;;;;;;;19.98;92.31;99966.72;5018706;28;20410;-71
2021/07/05 08:59:49;;;;;;;2.60;1.50;;;;;;;20.00;93.88;99961.94;5033402;28;20509;-70
2021/07/05 09:02:33;;;;;;;1.35;1.25;;;;;;;20.21;90.59;99967.13;5032488;28;20537;-71
2021/07/05 09:05:17;;;;;;;;;;;;;;;20.16;88.88;99966.91;5032753;28;20404;-71
2021/07/05 09:08:06;;;;;;;1.93;1.50;;;;;;;20.35;88.16;99961.47;5032917;28;19939;-71
2021/07/05 09:10:55;;;;;;;3.25;1.60;;;;;;;20.51;88.22;99963.66;5032366;28;20751;-71
2021/07/05 09:13:51;;;;;;;6.00;1.40;;;;;;;20.49;87.95;99951.38;5033633;28;20075;-71
2021/07/05 09:16:37;;;;;;;3.13;1.40;;;;;;;20.91;87.51;99945.38;5033262;28;20110;-71
2021/07/05 09:19:26;;;;;;;1.65;1.40;;;;;;;20.73;86.54;99958.78;5032891;28;20513;-71
2021/07/05 09:22:10;;;;;;;2.45;1.20;;;;;;;20.90;84.95;99944.53;5032608;28;20128;-71
2021/07/05 09:24:57;;;;;;;3.17;1.50;;;;;;;20.77;86.68;99938.31;5032363;28;20509;-71
2021/07/05 09:27:41;;;;;;;2.22;1.42;;;;;;;21.12;87.53;99936.91;5033514;28;20567;-71
2021/07/05 09:30:34;;;;;;;2.65;1.30;;;;;;;21.17;83.24;99944.13;5032542;28;20517;-70
2021/07/05 09:33:19;;;;;;;2.08;1.05;;;;;;;21.09;81.96;99940.03;5018483;28;20044;-70
2021/07/05 09:36:03;;;;;;;1.20;1.10;;;;;;;20.94;85.28;99923.25;5033039;28;20044;-71
2021/07/05 09:38:48;;;;;;;1.20;1.10;;;;;;;20.76;82.90;99923.13;5032413;28;20076;-71
2021/07/05 09:41:34;;;;;;;1.75;1.00;;;;;;;20.66;83.36;99936.31;5032309;28;20096;-71
2021/07/05 09:44:21;;;;;;;2.13;1.10;;;;;;;20.54;85.63;99932.63;5032243;28;20045;-71
2021/07/05 09:47:13;;;;;;;2.03;0.90;;;;;;;20.68;85.09;99931.50;5032324;28;20048;-71
2021/07/05 09:50:08;;;;;;;1.25;1.00;;;;;;;20.85;83.99;99928.13;5019100;28;20051;-71
2021/07/05 09:52:52;;;;;;;5.53;1.75;;;;;;;20.84;82.72;99944.53;5033843;28;20457;-71
2021/07/05 09:55:36;;;;;;;1.33;1.10;;;;;;;21.27;82.95;99933.63;5037399;28;20095;-71
2021/07/05 09:58:33;;;;;;;1.15;0.90;;;;;;;21.25;79.64;99943.88;5036529;28;20240;-70
2021/07/05 10:01:35;;;;;;;1.70;0.80;;;;;;;21.37;80.64;99936.69;5036056;28;20043;-70
2021/07/05 10:04:27;;;;;;;0.88;0.88;;;;;;;21.41;79.11;99918.09;5036992;28;20052;-70
2021/07/05 10:07:12;;;;;;;3.72;1.10;;;;;;;21.64;78.95;99918.31;5035822;28;20057;-70
2021/07/05 10:09:56;;;;;;;2.15;0.88;;;;;;;21.82;77.52;99930.03;5022068;28;20077;-71
2021/07/05 10:12:53;;;;;;;2.40;1.10;;;;;;;22.00;76.27;99930.03;5035651;28;20103;-71
2021/07/05 10:15:38;;;;;;;1.05;0.95;;;;;;;21.79;76.92;99922.31;5021977;28;20186;-71
2021/07/05 10:18:22;;;;;;;2.10;1.00;;;;;;;21.78;78.68;99920.66;5049539;28;20421;-71
2021/07/05 10:21:06;;;;;;;1.60;1.00;;;;;;;21.79;77.93;99922.31;5035604;28;20057;-71
2021/07/05 10:23:50;;;;;;;1.00;0.80;;;;;;;21.81;78.54;99916.69;5035298;28;20080;-71
2021/07/05 10:26:36;;;;;;;1.75;0.85;;;;;;;21.85;78.43;99920.59;5035388;28;20094;-71
2021/07/05 10:29:20;;;;;;;1.13;0.80;;;;;;;21.48;78.09;99914.25;5035462;28;20079;-71
2021/07/05 10:32:04;;;;;;;;;;;;;;;21.69;78.36;99918.47;5021872;28;20091;-70
2021/07/05 10:34:54;;;;;;;0.90;0.90;;;;;;;21.30;80.03;99913.38;5034980;28;19920;-71
2021/07/05 10:37:37;;;;;;;1.70;1.02;;;;;;;21.55;79.10;99917.75;5034736;28;20266;-72
2021/07/05 10:40:26;;;;;;;0.95;0.80;;;;;;;21.70;77.22;99906.56;5035685;28;20184;-70
2021/07/05 10:43:14;;;;;;;1.92;1.02;;;;;;;21.97;78.05;99906.06;5021051;28;20126;-70
2021/07/05 10:46:00;;;;;;;1.10;1.00;;;;;;;21.94;77.21;99917.38;5020785;28;20107;-69
2021/07/05 10:48:44;;;;;;;1.77;0.95;;;;;;;21.80;78.87;99907.72;5035574;28;20116;-69
2021/07/05 10:51:39;;;;;;;1.00;0.85;;;;;;;22.30;76.18;99906.50;5034385;28;20200;-70
2021/07/05 10:54:50;;;;;;;1.33;0.93;;;;;;;22.36;75.86;99893.88;5034586;28;20117;-70
2021/07/05 10:57:35;;;;;;;1.20;0.90;;;;;;;22.10;76.04;99899.66;5034226;28;20136;-70
2021/07/05 11:00:19;;;;;;;2.03;1.10;;;;;;;22.16;74.92;99907.72;5034500;28;20053;-69
2021/07/05 11:03:03;;;;;;;1.50;0.93;;;;;;;21.80;74.71;99921.28;5034452;28;20048;-69
2021/07/05 11:05:48;;;;;;;1.25;1.15;;;;;;;21.83;76.34;99915.41;5033158;28;20099;-69
2021/07/05 11:08:39;;;;;;;2.10;0.88;;;;;;;21.90;76.28;99905.31;5033798;28;20521;-69
2021/07/05 11:11:28;;;;;;;0.75;0.75;;;;;;;22.06;74.98;99896.56;5035305;28;20055;-67
2021/07/05 11:14:23;;;;;;;3.80;0.90;;;;;;;22.46;72.45;99913.22;5033590;28;20087;-65
2021/07/05 11:17:09;;;;;;;0.80;0.80;;;;;;;22.60;72.64;99904.66;5033588;28;20167;-69
2021/07/05 11:19:55;;;;;;;2.30;1.10;;;;;;;22.17;74.85;99906.66;5020217;28;20052;-68
2021/07/05 11:22:52;;;;;;;2.65;0.90;;;;;;;22.43;73.14;99908.25;5019644;28;20410;-68
2021/07/05 11:25:36;;;;;;;1.48;0.90;;;;;;;22.18;75.65;99905.59;5033495;28;20154;-68
2021/07/05 11:28:20;;;;;;;0.80;0.80;;;;;;;21.97;76.22;99895.22;5034768;28;20152;-68
2021/07/05 11:31:17;;;;;;;;;;;;;;;21.77;77.04;99908.16;5033839;28;20095;-68
2021/07/05 11:34:25;;;;;;;1.40;0.98;;;;;;;21.56;80.45;99903.13;5019590;28;19944;-68
2021/07/05 11:37:16;;;;;;;1.17;0.98;;;;;;;21.15;82.17;99895.78;5033137;28;20438;-67
2021/07/05 11:40:00;;;;;;;1.23;1.02;;;;;;;21.05;84.11;99890.84;5034280;28;20099;-68
2021/07/05 11:42:55;;;;;;;1.38;1.08;;;;;;;21.14;84.02;99881.38;5033403;28;20060;-68
2021/07/05 11:45:50;;;;;;;1.38;0.90;;;;;;;21.15;83.36;99903.91;5033236;28;20111;-68
2021/07/05 11:48:40;;;;;;;1.30;0.90;;;;;;;21.34;83.27;99880.19;5033837;28;20052;-68
2021/07/05 11:51:31;;;;;;;3.25;0.95;;;;;;;21.64;83.00;99889.31;5034015;28;20056;-67
2021/07/05 11:54:18;;;;;;;1.48;1.10;;;;;;;22.43;76.17;99879.19;5019595;28;20127;-67
2021/07/05 11:57:05;;;;;;;0.80;0.80;;;;;;;23.05;72.79;99873.28;5033531;28;20053;-68
2021/07/05 11:59:54;;;;;;;1.52;0.90;;;;;;;23.80;70.72;99869.66;5033878;28;20410;-67
2021/07/05 12:02:39;;;;;;;1.13;0.95;;;;;;;23.76;69.20;99863.00;5033548;28;20164;-67
2021/07/05 12:05:22;;;;;;;1.95;1.10;;;;;;;23.29;70.74;99855.94;5033162;28;20142;-67
2021/07/05 12:08:08;;;;;;;3.70;0.90;;;;;;;23.74;70.46;99870.59;5019703;28;20091;-67
2021/07/05 12:10:56;;;;;;;2.30;1.00;;;;;;;24.15;68.82;99854.09;5033686;28;20107;-67
2021/07/05 12:13:40;;;;;;;3.20;0.90;;;;;;;24.97;64.58;99845.31;5033416;28;20095;-67
2021/07/05 12:16:26;;;;;;;1.23;0.90;;;;;;;25.39;61.73;99852.03;5019323;28;20076;-67
2021/07/05 12:19:12;;;;;;;0.77;0.77;;;;;;;25.58;62.93;99867.06;5019513;28;20048;-67
2021/07/05 12:22:00;;;;;;;1.05;0.70;;;;;;;24.50;64.91;99849.34;5033512;28;20526;-67
2021/07/05 12:24:49;;;;;;;2.90;0.70;;;;;;;24.91;64.23;99844.41;5033362;28;20049;-67
2021/07/05 12:27:34;;;;;;;0.70;0.70;;;;;;;25.05;61.90;99853.09;5033255;28;20411;-69
2021/07/05 12:30:23;;;;;;;1.52;0.68;;;;;;;24.85;63.31;99852.75;5033225;28;20098;-70
2021/07/05 12:33:08;;;;;;;1.13;0.90;;;;;;;24.95;65.05;99845.59;5033096;28;20044;-69
2021/07/05 12:35:58;;;;;;;0.95;0.90;;;;;;;25.47;62.11;99840.72;5032774;28;20048;-69
2021/07/05 12:38:58;;;;;;;0.88;0.82;;;;;;;25.93;61.07;99853.97;5034108;28;20084;-69
2021/07/05 12:41:42;;;;;;;1.02;0.70;;;;;;;25.99;59.80;99847.47;5018993;28;20103;-70
2021/07/05 12:44:26;;;;;;;;;;;;;;;26.14;59.53;99840.31;5034347;28;20084;-68
2021/07/05 12:47:10;;;;;;;2.70;0.95;;;;;;;26.26;58.98;99848.38;5018697;28;20002;-69
2021/07/05 12:49:55;;;;;;;3.45;1.13;;;;;;;26.54;57.83;99845.47;5018673;28;20052;-70
2021/07/05 12:52:39;;;;;;;0.93;0.80;;;;;;;25.60;59.97;99857.56;5055346;23;20521;-66
2021/07/05 12:55:22;;;;;;;;;;;;;;;25.05;63.44;99859.41;5033037;28;20547;-66
2021/07/05 12:58:07;;;;;;;1.02;0.85;;;;;;;24.77;63.63;99850.41;5032745;28;19920;-66